Time;durP1;ratioP1;P1;durP2;ratioP2;P2;SDS_P1;SDS_P2;PMS_P1;PMS_P2;Temp;Humidity;BMP_temperature;BMP_pressure;BME280_temperature;BME280_humidity;BME280_pressure;Samples;Min_cycle;Max_cycle;Signal;HPM_P1;HPM_P2
2023/01/07 00:01:35;;;;;;;17.33;7.32;;;6.60;99.90;;;;;;5104498;28;20035;-72
2023/01/07 00:04:02;;;;;;;17.63;7.80;;;6.60;99.90;;;;;;5102208;28;20066;-72
2023/01/07 00:06:32;;;;;;;20.25;7.95;;;6.60;99.90;;;;;;5089702;28;20027;-72
2023/01/07 00:08:58;;;;;;;16.08;7.80;;;6.60;99.90;;;;;;5069053;28;20035;-73
2023/01/07 00:11:26;;;;;;;13.85;7.40;;;6.60;99.90;;;;;;5108314;27;20043;-72
2023/01/07 00:13:54;;;;;;;16.67;6.45;;;6.60;99.90;;;;;;5106202;28;20031;-73
2023/01/07 00:16:22;;;;;;;15.73;8.15;;;6.60;99.90;;;;;;5072618;28;20043;-72
2023/01/07 00:18:49;;;;;;;15.55;7.22;;;6.60;99.90;;;;;;5104265;28;20107;-72
2023/01/07 00:21:16;;;;;;;15.18;8.07;;;6.60;99.90;;;;;;5109108;28;20024;-72
2023/01/07 00:23:43;;;;;;;22.08;9.57;;;6.60;99.90;;;;;;5107919;28;20030;-72
2023/01/07 00:26:14;;;;;;;21.70;8.57;;;6.60;99.90;;;;;;5110226;28;20566;-71
2023/01/07 00:28:42;;;;;;;17.17;7.65;;;6.60;99.90;;;;;;5088304;28;20046;-72
2023/01/07 00:31:11;;;;;;;17.35;7.80;;;6.60;99.90;;;;;;5071279;28;20028;-72
2023/01/07 00:33:46;;;;;;;18.33;7.90;;;6.70;99.90;;;;;;5088521;28;20023;-72
2023/01/07 00:36:12;;;;;;;17.15;8.25;;;6.70;99.90;;;;;;5089852;28;20027;-72
2023/01/07 00:38:38;;;;;;;14.80;7.10;;;6.70;99.90;;;;;;5105571;28;20461;-73
2023/01/07 00:41:04;;;;;;;14.60;7.70;;;6.70;99.90;;;;;;5106187;28;20023;-73
2023/01/07 00:43:31;;;;;;;15.88;7.75;;;6.80;99.90;;;;;;5105085;28;20031;-72
2023/01/07 00:45:57;;;;;;;13.55;7.20;;;6.80;99.90;;;;;;5091036;28;20464;-72
2023/01/07 00:48:24;;;;;;;16.77;8.32;;;6.80;99.90;;;;;;5107012;28;20031;-72
2023/01/07 00:50:50;;;;;;;17.02;7.78;;;6.80;99.90;;;;;;5104507;28;20024;-72
2023/01/07 00:53:17;;;;;;;14.57;7.35;;;6.80;99.90;;;;;;5106567;28;20039;-72
2023/01/07 00:55:43;;;;;;;17.35;8.65;;;6.80;99.90;;;;;;5109630;28;20525;-72
2023/01/07 00:58:30;;;;;;;14.85;7.22;;;6.80;99.90;;;;;;5105649;28;20024;-72
2023/01/07 01:00:58;;;;;;;18.00;8.13;;;6.80;99.90;;;;;;5070123;28;20452;-72
2023/01/07 01:03:25;;;;;;;17.13;8.50;;;6.80;99.90;;;;;;5105492;28;20040;-72
2023/01/07 01:05:50;;;;;;;17.83;8.00;;;6.80;99.90;;;;;;5107497;28;20031;-72
2023/01/07 01:08:17;;;;;;;15.93;7.80;;;6.80;99.90;;;;;;5086244;28;20032;-72
2023/01/07 01:10:44;;;;;;;16.75;8.77;;;6.80;99.90;;;;;;5102703;28;20038;-73
2023/01/07 01:13:15;;;;;;;22.48;9.77;;;6.80;99.90;;;;;;5105193;28;20032;-72
2023/01/07 01:15:46;;;;;;;17.63;8.40;;;6.80;99.90;;;;;;5089477;28;20050;-73
2023/01/07 01:18:13;;;;;;;23.52;10.80;;;6.90;99.90;;;;;;5103521;28;20024;-73
2023/01/07 01:20:39;;;;;;;21.17;9.73;;;6.90;99.90;;;;;;5104286;28;20047;-72
2023/01/07 01:23:09;;;;;;;20.58;10.65;;;6.90;99.90;;;;;;5116995;28;20088;-72
2023/01/07 01:25:35;;;;;;;18.70;9.90;;;6.90;99.90;;;;;;5073795;28;20027;-72
2023/01/07 01:28:01;;;;;;;21.88;11.20;;;6.90;99.90;;;;;;5102128;28;20038;-72
2023/01/07 01:30:27;;;;;;;23.63;10.20;;;6.90;99.90;;;;;;5105431;28;20040;-72
2023/01/07 01:32:53;;;;;;;22.70;10.73;;;6.90;99.90;;;;;;5088105;28;20035;-72
2023/01/07 01:35:18;;;;;;;18.35;10.13;;;6.90;99.90;;;;;;5109148;28;20036;-72
2023/01/07 01:37:44;;;;;;;17.70;9.70;;;6.90;99.90;;;;;;5088640;28;20059;-72
2023/01/07 01:40:10;;;;;;;22.65;10.90;;;6.90;99.90;;;;;;5105490;28;20024;-75
2023/01/07 01:42:37;;;;;;;22.85;11.32;;;6.90;99.90;;;;;;5087626;28;20525;-76
2023/01/07 01:45:04;;;;;;;23.27;10.82;;;6.90;99.90;;;;;;5108459;28;20059;-75
2023/01/07 01:47:38;;;;;;;24.13;11.25;;;6.90;99.90;;;;;;5089176;28;20139;-75
2023/01/07 01:50:19;;;;;;;20.75;10.85;;;7.00;99.90;;;;;;5086434;28;20182;-75
2023/01/07 01:53:03;;;;;;;21.13;11.00;;;7.00;99.90;;;;;;5107768;28;20028;-75
2023/01/07 01:55:38;;;;;;;19.77;10.73;;;7.00;99.90;;;;;;5092875;28;20057;-76
2023/01/07 01:58:10;;;;;;;24.20;12.35;;;7.10;99.90;;;;;;5108985;28;20598;-75
2023/01/07 02:00:36;;;;;;;21.23;10.63;;;7.10;99.90;;;;;;5107444;28;20102;-76
2023/01/07 02:03:07;;;;;;;27.05;13.95;;;7.10;99.90;;;;;;5086695;28;20623;-75
2023/01/07 02:05:36;;;;;;;23.95;12.63;;;7.10;99.90;;;;;;5086091;28;20380;-76
2023/01/07 02:08:01;;;;;;;23.50;12.80;;;7.10;99.90;;;;;;5091389;28;20100;-76
2023/01/07 02:10:30;;;;;;;24.17;12.95;;;7.20;99.90;;;;;;5074766;28;20118;-76
2023/01/07 02:13:04;;;;;;;23.40;13.10;;;7.20;99.90;;;;;;5108184;28;20520;-76
2023/01/07 02:15:39;;;;;;;26.00;13.73;;;7.20;99.90;;;;;;5102954;28;20076;-76
2023/01/07 02:18:33;;;;;;;25.90;13.55;;;7.30;99.90;;;;;;5106915;27;20111;-75
2023/01/07 02:21:03;;;;;;;25.10;13.45;;;7.30;99.90;;;;;;5108262;28;20024;-76
2023/01/07 02:24:07;;;;;;;26.92;14.23;;;7.30;99.90;;;;;;5107644;27;20085;-75
2023/01/07 02:27:06;;;;;;;24.65;14.20;;;7.30;99.90;;;;;;5088019;28;20460;-76
2023/01/07 02:29:58;;;;;;;29.75;15.85;;;7.40;99.90;;;;;;5078370;28;20023;-75
2023/01/07 02:32:42;;;;;;;33.75;16.10;;;7.30;99.90;;;;;;5095447;28;20059;-75
2023/01/07 02:35:27;;;;;;;30.40;16.45;;;7.40;99.90;;;;;;5113342;28;20040;-75
2023/01/07 02:38:14;;;;;;;30.42;16.30;;;7.30;99.90;;;;;;5087972;28;20031;-75
2023/01/07 02:40:54;;;;;;;29.95;16.58;;;7.40;99.90;;;;;;5090525;28;20047;-76
2023/01/07 02:43:35;;;;;;;38.83;19.75;;;7.40;99.90;;;;;;5072196;28;20023;-75
2023/01/07 02:46:05;;;;;;;;;;;7.30;99.90;;;;;;5090698;28;20033;-75
2023/01/07 02:48:34;;;;;;;34.33;18.10;;;7.30;99.90;;;;;;5091944;28;19912;-75
2023/01/07 02:50:59;;;;;;;34.33;18.33;;;7.30;99.90;;;;;;5087858;28;20106;-75
2023/01/07 02:53:25;;;;;;;38.63;19.58;;;7.30;99.90;;;;;;5075792;28;20110;-74
2023/01/07 02:56:12;;;;;;;36.20;19.73;;;7.30;99.90;;;;;;5087846;28;20117;-74
2023/01/07 02:58:50;;;;;;;33.97;17.73;;;7.30;99.90;;;;;;5089774;28;20022;-75
2023/01/07 03:01:37;;;;;;;35.25;18.27;;;7.40;99.90;;;;;;5088350;28;20114;-75
2023/01/07 03:04:34;;;;;;;34.35;19.10;;;7.40;99.90;;;;;;5093154;28;20030;-75
2023/01/07 03:07:18;;;;;;;35.70;19.13;;;7.40;99.90;;;;;;5092617;28;20050;-76
2023/01/07 03:10:10;;;;;;;31.88;17.27;;;7.50;99.90;;;;;;5087913;28;20035;-75
2023/01/07 03:12:53;;;;;;;33.33;17.98;;;7.50;99.90;;;;;;5110611;28;20046;-78
2023/01/07 03:15:39;;;;;;;38.30;20.05;;;7.60;99.90;;;;;;5105879;28;20400;-76
2023/01/07 03:18:14;;;;;;;35.30;19.58;;;7.60;99.90;;;;;;5107111;27;20106;-72
2023/01/07 03:20:42;;;;;;;38.45;21.02;;;7.60;99.90;;;;;;5105477;27;20031;-72
2023/01/07 03:23:12;;;;;;;34.00;19.75;;;7.70;99.90;;;;;;5089791;28;20043;-72
2023/01/07 03:25:45;;;;;;;40.83;22.00;;;7.70;99.90;;;;;;5109459;27;20032;-73
2023/01/07 03:28:14;;;;;;;38.53;20.88;;;7.80;99.90;;;;;;5108473;27;20038;-72
2023/01/07 03:30:41;;;;;;;35.80;20.60;;;7.80;99.90;;;;;;5104759;28;20537;-72
2023/01/07 03:33:15;;;;;;;40.55;21.08;;;7.80;99.90;;;;;;5090019;28;20019;-72
2023/01/07 03:35:44;;;;;;;40.85;21.15;;;7.90;99.90;;;;;;5103632;28;20097;-72
2023/01/07 03:38:11;;;;;;;34.88;20.10;;;7.90;99.90;;;;;;5112904;28;20038;-72
2023/01/07 03:40:37;;;;;;;37.28;20.30;;;7.90;99.90;;;;;;5085892;28;20030;-72
2023/01/07 03:43:04;;;;;;;37.22;19.30;;;7.90;99.90;;;;;;5106717;27;20042;-73
2023/01/07 03:45:30;;;;;;;39.45;23.08;;;8.00;99.90;;;;;;5105508;28;20098;-72
2023/01/07 03:47:56;;;;;;;41.75;23.05;;;8.00;99.90;;;;;;5108052;27;20084;-72
2023/01/07 03:50:23;;;;;;;48.83;24.50;;;8.10;99.90;;;;;;5105218;27;20042;-72
2023/01/07 03:52:49;;;;;;;49.08;24.60;;;8.20;99.90;;;;;;5090842;28;20034;-72
2023/01/07 03:55:15;;;;;;;39.05;22.23;;;8.20;99.90;;;;;;5074471;27;20379;-72
2023/01/07 03:57:41;;;;;;;43.55;23.25;;;8.30;99.90;;;;;;5106076;28;20024;-72
2023/01/07 04:00:09;;;;;;;44.67;23.48;;;8.30;99.90;;;;;;5089910;28;20164;-72
2023/01/07 04:02:35;;;;;;;39.53;22.73;;;8.40;99.90;;;;;;5106396;28;20047;-72
2023/01/07 04:05:00;;;;;;;49.80;26.08;;;8.40;99.90;;;;;;5106831;27;20116;-73
2023/01/07 04:07:26;;;;;;;43.17;23.95;;;8.50;99.90;;;;;;5087777;28;20034;-73
2023/01/07 04:09:52;;;;;;;43.55;23.88;;;8.40;99.90;;;;;;5103670;28;20559;-73
2023/01/07 04:12:17;;;;;;;47.45;26.33;;;8.50;99.90;;;;;;5104158;28;20032;-73
2023/01/07 04:14:43;;;;;;;49.22;26.25;;;8.50;99.90;;;;;;5088898;28;20047;-73
2023/01/07 04:17:09;;;;;;;46.80;24.65;;;8.60;99.90;;;;;;5108715;28;20325;-73
2023/01/07 04:19:37;;;;;;;41.83;24.27;;;8.60;99.90;;;;;;5084692;28;20441;-73
2023/01/07 04:22:04;;;;;;;44.00;24.45;;;8.60;99.90;;;;;;5086649;28;20055;-73
2023/01/07 04:24:30;;;;;;;42.28;23.63;;;8.70;99.90;;;;;;5102305;28;20229;-73
2023/01/07 04:26:56;;;;;;;41.47;22.50;;;8.70;99.90;;;;;;5106440;28;20455;-73
2023/01/07 04:29:22;;;;;;;39.10;22.52;;;8.70;99.90;;;;;;5086494;28;20119;-73
2023/01/07 04:31:48;;;;;;;42.13;24.92;;;8.70;99.90;;;;;;5072758;28;20067;-73
2023/01/07 04:34:14;;;;;;;40.42;23.88;;;8.70;99.90;;;;;;5087820;28;20108;-73
2023/01/07 04:36:40;;;;;;;44.53;25.63;;;8.80;99.90;;;;;;5103075;28;20475;-73
2023/01/07 04:39:05;;;;;;;41.15;23.30;;;8.80;99.90;;;;;;5104023;27;20460;-75
2023/01/07 04:41:31;;;;;;;34.28;21.63;;;8.80;99.90;;;;;;5085135;28;20023;-75
2023/01/07 04:43:57;;;;;;;37.65;22.75;;;8.90;99.90;;;;;;5088967;28;20024;-75
2023/01/07 04:46:24;;;;;;;34.05;20.08;;;8.90;99.90;;;;;;5112767;28;20054;-76
2023/01/07 04:48:50;;;;;;;39.45;22.40;;;8.90;99.90;;;;;;5107421;28;20039;-76
2023/01/07 04:51:15;;;;;;;35.22;20.98;;;9.00;99.90;;;;;;5086619;28;20076;-76
2023/01/07 04:53:41;;;;;;;39.72;23.23;;;9.00;99.90;;;;;;5084871;28;20031;-76
2023/01/07 04:56:07;;;;;;;36.67;22.00;;;9.00;99.90;;;;;;5081835;28;20544;-77
2023/01/07 04:58:33;;;;;;;38.28;22.35;;;9.10;99.90;;;;;;5071874;28;20024;-76
2023/01/07 05:01:00;;;;;;;35.88;20.33;;;9.10;99.90;;;;;;5106996;28;20016;-76
2023/01/07 05:03:26;;;;;;;37.40;22.10;;;9.10;99.90;;;;;;5107999;28;20034;-76
2023/01/07 05:05:52;;;;;;;34.80;21.13;;;9.10;99.90;;;;;;5106943;28;20990;-76
2023/01/07 05:08:17;;;;;;;28.92;18.70;;;9.20;99.90;;;;;;5087750;28;20027;-76
2023/01/07 05:10:43;;;;;;;40.00;23.13;;;9.20;99.90;;;;;;5085196;28;20487;-76
2023/01/07 05:13:14;;;;;;;36.25;22.42;;;9.20;99.90;;;;;;5086137;28;20028;-76
2023/01/07 05:15:40;;;;;;;34.85;21.17;;;9.20;99.90;;;;;;5089429;28;20076;-76
2023/01/07 05:18:07;;;;;;;34.08;22.05;;;9.20;99.90;;;;;;5069761;28;20024;-76
2023/01/07 05:20:32;;;;;;;36.17;22.15;;;9.20;99.90;;;;;;5105821;28;20114;-78
2023/01/07 05:22:58;;;;;;;36.28;22.13;;;9.20;99.90;;;;;;5088378;28;20122;-75
2023/01/07 05:25:24;;;;;;;38.28;23.40;;;9.30;99.90;;;;;;5088088;28;20094;-76
2023/01/07 05:27:49;;;;;;;38.90;23.30;;;9.20;99.90;;;;;;5106852;28;20039;-75
2023/01/07 05:30:15;;;;;;;39.83;24.02;;;9.20;99.90;;;;;;5084499;28;20395;-76
2023/01/07 05:32:41;;;;;;;39.67;23.33;;;9.30;99.90;;;;;;5073039;28;20179;-75
2023/01/07 05:35:07;;;;;;;33.03;20.92;;;9.30;99.90;;;;;;5103163;28;20028;-76
2023/01/07 05:37:33;;;;;;;40.72;23.95;;;9.30;99.90;;;;;;5103820;28;20027;-76
2023/01/07 05:39:58;;;;;;;37.80;21.50;;;9.30;99.90;;;;;;5103461;28;20518;-73
2023/01/07 05:42:24;;;;;;;34.30;21.65;;;9.30;99.90;;;;;;5087668;28;20407;-73
2023/01/07 05:44:50;;;;;;;33.72;21.73;;;9.30;99.90;;;;;;5085472;28;20038;-73
2023/01/07 05:47:16;;;;;;;32.78;19.77;;;9.30;99.90;;;;;;5103530;28;20028;-73
2023/01/07 05:49:42;;;;;;;39.30;22.15;;;9.40;99.90;;;;;;5082823;28;20485;-72
2023/01/07 05:52:08;;;;;;;33.78;19.65;;;9.40;99.90;;;;;;5086948;28;20119;-73
2023/01/07 05:54:33;;;;;;;36.70;22.08;;;9.40;99.90;;;;;;5105735;28;20040;-73
2023/01/07 05:56:59;;;;;;;32.85;20.88;;;9.40;99.90;;;;;;5084388;28;20028;-73
2023/01/07 05:59:25;;;;;;;31.90;19.90;;;9.40;99.90;;;;;;5083618;28;20479;-73
2023/01/07 06:01:51;;;;;;;34.05;21.75;;;9.40;99.90;;;;;;5105735;28;20035;-73
2023/01/07 06:04:16;;;;;;;35.50;22.50;;;9.50;99.90;;;;;;5104696;28;20031;-73
2023/01/07 06:06:42;;;;;;;34.38;21.83;;;9.50;99.90;;;;;;5105385;28;20058;-73
2023/01/07 06:09:09;;;;;;;34.45;22.15;;;9.40;99.90;;;;;;5088470;28;20039;-73
2023/01/07 06:11:34;;;;;;;34.03;22.00;;;9.50;99.90;;;;;;5103985;28;20047;-74
2023/01/07 06:14:00;;;;;;;35.10;21.90;;;9.50;99.90;;;;;;5098068;28;20407;-72
2023/01/07 06:16:26;;;;;;;38.50;23.08;;;9.50;99.90;;;;;;5085465;28;20031;-72
2023/01/07 06:18:52;;;;;;;36.15;21.70;;;9.50;99.90;;;;;;5103801;28;20079;-72
2023/01/07 06:21:17;;;;;;;36.05;22.23;;;9.50;99.90;;;;;;5105394;28;20478;-73
2023/01/07 06:23:43;;;;;;;33.83;22.40;;;9.50;99.90;;;;;;5100528;28;20388;-73
2023/01/07 06:26:09;;;;;;;34.10;22.27;;;9.50;99.90;;;;;;5088799;28;20347;-73
2023/01/07 06:28:34;;;;;;;36.25;23.02;;;9.50;99.90;;;;;;5088192;28;20016;-72
2023/01/07 06:31:00;;;;;;;34.50;21.30;;;9.50;99.90;;;;;;5077809;28;20108;-73
2023/01/07 06:33:26;;;;;;;31.20;21.45;;;9.50;99.90;;;;;;5087503;28;20032;-72
2023/01/07 06:35:51;;;;;;;32.17;21.50;;;9.60;99.90;;;;;;5107589;28;20052;-73
2023/01/07 06:38:17;;;;;;;33.30;22.05;;;9.60;99.90;;;;;;5088740;28;20033;-72
2023/01/07 06:40:46;;;;;;;34.63;22.20;;;9.50;99.90;;;;;;5105486;28;20027;-72
2023/01/07 06:43:12;;;;;;;36.58;23.40;;;9.50;99.90;;;;;;5108186;28;20111;-73
2023/01/07 06:45:37;;;;;;;33.58;22.00;;;9.60;99.90;;;;;;5075252;28;20119;-72
2023/01/07 06:48:03;;;;;;;30.73;21.15;;;9.60;99.90;;;;;;5106164;28;20609;-73
2023/01/07 06:50:29;;;;;;;34.80;21.92;;;9.60;99.90;;;;;;5089911;28;20238;-73
2023/01/07 06:52:55;;;;;;;34.60;23.33;;;9.50;99.90;;;;;;5106960;28;20036;-72
2023/01/07 06:55:21;;;;;;;36.13;22.48;;;9.60;99.90;;;;;;5090934;28;20028;-72
2023/01/07 06:57:48;;;;;;;33.97;22.77;;;9.60;99.90;;;;;;5087208;28;20071;-72
2023/01/07 07:00:14;;;;;;;33.20;22.33;;;9.60;99.90;;;;;;5102550;28;20124;-73
2023/01/07 07:02:41;;;;;;;33.08;22.92;;;9.60;99.90;;;;;;5103746;28;20040;-73
2023/01/07 07:05:07;;;;;;;37.20;23.58;;;9.60;99.90;;;;;;5087073;28;20406;-72
2023/01/07 07:07:33;;;;;;;38.67;24.05;;;9.60;99.90;;;;;;5090392;28;20035;-73
2023/01/07 07:09:58;;;;;;;35.42;23.63;;;9.60;99.90;;;;;;5088266;28;20046;-72
2023/01/07 07:12:24;;;;;;;39.47;24.90;;;9.60;99.90;;;;;;5109148;28;20504;-73
2023/01/07 07:14:50;;;;;;;35.17;23.27;;;9.60;99.90;;;;;;5090312;28;20035;-73
2023/01/07 07:17:16;;;;;;;36.33;23.88;;;9.60;99.90;;;;;;5105702;28;20495;-72
2023/01/07 07:19:41;;;;;;;39.22;24.55;;;9.70;99.90;;;;;;5104028;28;20085;-72
2023/01/07 07:22:07;;;;;;;40.13;24.92;;;9.70;99.90;;;;;;5072610;28;20045;-72
2023/01/07 07:24:33;;;;;;;35.63;23.77;;;9.70;99.90;;;;;;5091639;28;20145;-73
2023/01/07 07:26:59;;;;;;;36.45;23.80;;;9.70;99.90;;;;;;5092327;28;20031;-72
2023/01/07 07:29:25;;;;;;;26.65;16.27;;;9.70;99.90;;;;;;5091903;28;20069;-73
2023/01/07 07:31:51;;;;;;;34.38;21.92;;;9.80;99.90;;;;;;5090106;28;20036;-73
2023/01/07 07:34:19;;;;;;;36.45;24.23;;;9.80;99.90;;;;;;5089428;28;20028;-73
2023/01/07 07:36:45;;;;;;;34.95;22.88;;;9.80;99.90;;;;;;5086343;28;20028;-73
2023/01/07 07:39:11;;;;;;;37.05;22.50;;;9.80;99.90;;;;;;5090454;28;20035;-73
2023/01/07 07:41:37;;;;;;;34.53;24.42;;;9.80;99.90;;;;;;5086326;28;20034;-73
2023/01/07 07:44:02;;;;;;;38.75;24.50;;;9.80;99.90;;;;;;5087805;28;20399;-74
2023/01/07 07:46:30;;;;;;;32.50;22.25;;;9.80;99.90;;;;;;5090487;28;20047;-73
2023/01/07 07:48:56;;;;;;;39.63;26.00;;;9.80;99.90;;;;;;5104001;28;20073;-73
2023/01/07 07:51:22;;;;;;;38.17;25.83;;;9.80;99.90;;;;;;5089172;28;20349;-72
2023/01/07 07:53:48;;;;;;;35.85;24.33;;;9.80;99.90;;;;;;5104966;28;20106;-72
2023/01/07 07:56:13;;;;;;;36.15;24.73;;;9.80;99.90;;;;;;5108839;28;20028;-72
2023/01/07 07:58:41;;;;;;;40.50;26.20;;;9.80;99.90;;;;;;5104622;28;20042;-72
2023/01/07 08:01:08;;;;;;;36.38;24.55;;;9.80;99.90;;;;;;5107577;28;20019;-72
2023/01/07 08:03:33;;;;;;;39.67;25.25;;;9.80;99.90;;;;;;5072351;28;20023;-72
2023/01/07 08:06:03;;;;;;;40.00;26.80;;;9.90;99.90;;;;;;5103180;28;20568;-70
2023/01/07 08:08:29;;;;;;;36.30;23.92;;;9.80;99.90;;;;;;5096887;28;20031;-69
2023/01/07 08:10:55;;;;;;;36.75;25.20;;;9.90;99.90;;;;;;5090829;28;20097;-69
2023/01/07 08:13:21;;;;;;;36.42;25.63;;;9.90;99.90;;;;;;5087388;28;20027;-73
2023/01/07 08:15:47;;;;;;;36.72;24.55;;;9.90;99.90;;;;;;5085942;28;20574;-73
2023/01/07 08:18:13;;;;;;;34.88;22.55;;;9.90;99.90;;;;;;5086425;28;20023;-72
2023/01/07 08:20:39;;;;;;;34.22;24.17;;;9.90;99.90;;;;;;5107595;28;20031;-73
2023/01/07 08:23:06;;;;;;;34.55;24.08;;;10.00;99.90;;;;;;5100286;28;20035;-72
2023/01/07 08:25:33;;;;;;;35.13;24.42;;;10.00;99.90;;;;;;5085030;28;20108;-71
2023/01/07 08:28:00;;;;;;;37.40;25.55;;;10.00;99.90;;;;;;5102078;28;20035;-72
2023/01/07 08:30:27;;;;;;;39.08;24.70;;;10.00;99.90;;;;;;5084192;28;20154;-72
2023/01/07 08:32:53;;;;;;;39.20;26.35;;;10.00;99.90;;;;;;5084582;28;20055;-72
2023/01/07 08:35:18;;;;;;;35.97;24.75;;;10.00;99.90;;;;;;5080836;28;20094;-73
2023/01/07 08:37:44;;;;;;;38.35;25.35;;;10.00;99.90;;;;;;5103649;28;20111;-73
2023/01/07 08:40:11;;;;;;;34.00;23.88;;;10.10;99.90;;;;;;5102384;28;20034;-73
2023/01/07 08:42:38;;;;;;;32.60;22.85;;;10.10;99.90;;;;;;5086615;28;20491;-72
2023/01/07 08:45:05;;;;;;;33.17;22.35;;;10.10;99.90;;;;;;5105109;28;20036;-72
2023/01/07 08:47:31;;;;;;;31.00;21.90;;;10.10;99.90;;;;;;5105110;28;20024;-72
2023/01/07 08:49:57;;;;;;;30.77;20.80;;;10.10;99.90;;;;;;5101979;28;20569;-72
2023/01/07 08:52:24;;;;;;;34.03;22.52;;;10.10;99.90;;;;;;5093427;28;20031;-71
2023/01/07 08:54:50;;;;;;;31.77;21.52;;;10.10;99.90;;;;;;5099372;28;20030;-71
2023/01/07 08:57:17;;;;;;;31.08;20.90;;;10.10;99.90;;;;;;5074482;28;20149;-71
2023/01/07 08:59:45;;;;;;;27.90;19.30;;;10.10;99.90;;;;;;5077483;28;20024;-72
2023/01/07 09:02:16;;;;;;;27.20;18.55;;;10.10;99.90;;;;;;5092191;28;20134;-73
2023/01/07 09:04:43;;;;;;;24.73;18.00;;;10.20;99.90;;;;;;5058524;28;20059;-72
2023/01/07 09:07:09;;;;;;;24.88;16.60;;;10.20;99.90;;;;;;5091009;28;20115;-74
2023/01/07 09:09:35;;;;;;;23.77;17.17;;;10.20;99.90;;;;;;5091555;28;20035;-72
2023/01/07 09:12:04;;;;;;;27.02;17.10;;;10.20;99.90;;;;;;5072449;28;20059;-72
2023/01/07 09:14:29;;;;;;;22.73;16.10;;;10.20;99.90;;;;;;5080729;28;20957;-72
2023/01/07 09:16:55;;;;;;;22.13;15.57;;;10.30;99.90;;;;;;5066976;28;20062;-72
2023/01/07 09:19:21;;;;;;;23.27;15.10;;;10.30;99.90;;;;;;5065360;28;20036;-72
2023/01/07 09:21:47;;;;;;;23.90;14.68;;;10.30;99.90;;;;;;5076203;28;20140;-72
2023/01/07 09:24:12;;;;;;;20.10;14.82;;;10.30;99.90;;;;;;5059310;28;20065;-72
2023/01/07 09:26:38;;;;;;;21.60;13.93;;;10.30;99.90;;;;;;5091516;28;20106;-74
2023/01/07 09:29:04;;;;;;;16.33;12.27;;;10.30;99.90;;;;;;5099574;28;20034;-72
2023/01/07 09:31:30;;;;;;;18.17;12.10;;;10.30;99.90;;;;;;5090995;28;20129;-74
2023/01/07 09:33:56;;;;;;;14.55;10.23;;;10.30;99.90;;;;;;5093767;28;20027;-72
2023/01/07 09:36:21;;;;;;;15.63;10.73;;;10.30;99.90;;;;;;5085856;28;20032;-72
2023/01/07 09:38:47;;;;;;;18.50;9.63;;;10.30;99.90;;;;;;5098977;28;20467;-73
2023/01/07 09:41:31;;;;;;;13.20;9.68;;;10.30;99.90;;;;;;5072689;28;20031;-72
2023/01/07 09:44:22;;;;;;;10.98;8.30;;;10.40;99.90;;;;;;5074268;28;20054;-72
2023/01/07 09:46:49;;;;;;;11.85;7.28;;;10.40;99.90;;;;;;5081723;28;20027;-73
2023/01/07 09:49:18;;;;;;;8.20;6.25;;;10.50;99.90;;;;;;5085545;28;20028;-73
2023/01/07 09:51:55;;;;;;;10.68;7.35;;;10.50;99.90;;;;;;5068823;28;20123;-72
2023/01/07 09:54:29;;;;;;;9.15;6.38;;;10.50;99.90;;;;;;5080977;28;20053;-72
2023/01/07 09:56:55;;;;;;;7.25;4.93;;;10.50;99.90;;;;;;5098780;28;20028;-72
2023/01/07 09:59:21;;;;;;;5.40;4.70;;;10.60;99.90;;;;;;5087791;28;20023;-72
2023/01/07 10:02:11;;;;;;;6.90;5.15;;;10.60;99.90;;;;;;5069645;28;20035;-73
2023/01/07 10:04:44;;;;;;;7.53;4.53;;;10.50;99.90;;;;;;5090784;28;20106;-73
2023/01/07 10:07:38;;;;;;;6.22;4.57;;;10.60;99.90;;;;;;5089632;28;20609;-73
2023/01/07 10:10:19;;;;;;;9.32;3.70;;;10.60;99.90;;;;;;5074033;28;20039;-72
2023/01/07 10:13:14;;;;;;;7.07;3.90;;;10.60;99.90;;;;;;5100927;28;20782;-73
2023/01/07 10:16:02;;;;;;;5.70;3.80;;;10.60;99.90;;;;;;5098646;28;20035;-73
2023/01/07 10:18:59;;;;;;;6.00;3.78;;;10.60;99.90;;;;;;5077736;28;21531;-76
2023/01/07 10:21:45;;;;;;;4.95;3.30;;;10.70;99.90;;;;;;5078554;28;20479;-74
2023/01/07 10:24:22;;;;;;;7.95;3.58;;;10.70;99.90;;;;;;5085493;28;20039;-77
2023/01/07 10:26:52;;;;;;;4.95;3.13;;;10.60;99.90;;;;;;5086290;28;20026;-76
2023/01/07 10:29:30;;;;;;;18.95;3.97;;;10.70;99.90;;;;;;5086068;28;20487;-76
2023/01/07 10:32:01;;;;;;;6.80;2.85;;;10.70;99.90;;;;;;5087040;28;20034;-75
2023/01/07 10:34:37;;;;;;;3.75;2.67;;;10.70;99.90;;;;;;5068852;28;20413;-74
2023/01/07 10:37:12;;;;;;;5.85;3.20;;;10.70;99.90;;;;;;5101471;28;20117;-75
2023/01/07 10:39:47;;;;;;;6.30;3.33;;;10.70;99.90;;;;;;5105719;28;20106;-75
2023/01/07 10:42:23;;;;;;;6.78;2.92;;;10.70;99.90;;;;;;5080539;28;20123;-79
2023/01/07 10:45:07;;;;;;;5.88;2.88;;;10.70;99.90;;;;;;5080237;28;20390;-77
2023/01/07 10:48:03;;;;;;;4.88;2.58;;;10.70;99.90;;;;;;5080758;28;20045;-76
2023/01/07 10:50:39;;;;;;;4.45;2.50;;;10.60;99.90;;;;;;5087551;28;20045;-76
2023/01/07 10:53:26;;;;;;;4.63;2.70;;;10.60;99.90;;;;;;5101995;27;20081;-72
2023/01/07 10:56:11;;;;;;;5.97;2.83;;;10.60;99.90;;;;;;5087477;28;20394;-72
2023/01/07 10:58:42;;;;;;;4.05;2.50;;;10.60;99.90;;;;;;5107557;28;20035;-72
2023/01/07 11:01:11;;;;;;;;;;;10.60;99.90;;;;;;5100819;28;20032;-72
2023/01/07 11:03:39;;;;;;;4.85;3.22;;;10.60;99.90;;;;;;5069897;28;19911;-72
2023/01/07 11:06:10;;;;;;;4.05;2.42;;;10.60;99.90;;;;;;5105247;27;20031;-76
2023/01/07 11:08:40;;;;;;;5.05;2.67;;;10.60;99.90;;;;;;5075459;28;21855;-75
2023/01/07 11:11:14;;;;;;;3.78;2.60;;;10.60;99.90;;;;;;5061596;28;20023;-76
2023/01/07 11:13:43;;;;;;;4.22;2.55;;;10.70;99.90;;;;;;5105482;28;20085;-74
2023/01/07 11:16:19;;;;;;;5.45;2.45;;;10.70;99.90;;;;;;5089642;28;20036;-75
2023/01/07 11:19:09;;;;;;;3.30;2.03;;;10.70;99.90;;;;;;5084147;28;21730;-75
2023/01/07 11:21:44;;;;;;;2.92;2.00;;;10.70;99.90;;;;;;5073060;28;20027;-72
2023/01/07 11:24:33;;;;;;;3.05;1.55;;;10.80;99.90;;;;;;5100635;28;20027;-72
2023/01/07 11:27:05;;;;;;;8.07;2.55;;;10.80;99.90;;;;;;5105141;28;20106;-72
2023/01/07 11:29:41;;;;;;;3.53;1.90;;;10.80;99.90;;;;;;5082033;28;20011;-72
2023/01/07 11:32:20;;;;;;;2.92;1.90;;;10.90;99.90;;;;;;5085760;28;20477;-73
2023/01/07 11:34:55;;;;;;;3.50;2.05;;;10.90;99.90;;;;;;5108575;27;20479;-71
2023/01/07 11:37:45;;;;;;;3.03;1.90;;;10.90;99.90;;;;;;5104925;27;20495;-73
2023/01/07 11:40:14;;;;;;;2.23;1.50;;;10.90;99.90;;;;;;5093786;28;20054;-72
2023/01/07 11:42:56;;;;;;;2.75;1.80;;;10.90;99.90;;;;;;5106217;27;20295;-71
2023/01/07 11:45:31;;;;;;;2.70;1.50;;;10.90;99.90;;;;;;5084556;28;20030;-73
2023/01/07 11:48:33;;;;;;;3.88;1.75;;;10.80;99.90;;;;;;5098729;27;20393;-73
2023/01/07 11:51:01;;;;;;;2.53;1.58;;;10.90;99.90;;;;;;5079753;28;20031;-74
2023/01/07 11:53:42;;;;;;;2.33;1.40;;;10.90;99.90;;;;;;5101530;27;20090;-70
2023/01/07 11:56:23;;;;;;;3.72;1.40;;;10.90;99.90;;;;;;5076435;28;20138;-73
2023/01/07 11:58:51;;;;;;;2.92;1.40;;;10.90;99.90;;;;;;5077856;28;20024;-72
2023/01/07 12:01:19;;;;;;;2.20;1.58;;;10.90;99.90;;;;;;5099062;28;20054;-72
2023/01/07 12:04:19;;;;;;;2.72;1.30;;;11.00;99.90;;;;;;5092405;27;20114;-72
2023/01/07 12:06:46;;;;;;;2.33;1.42;;;11.00;99.90;;;;;;5100667;28;20043;-73
2023/01/07 12:09:30;;;;;;;2.97;1.40;;;11.00;99.90;;;;;;5085458;28;20035;-72
2023/01/07 12:11:58;;;;;;;3.25;1.50;;;11.00;99.90;;;;;;5105774;28;20514;-72
2023/01/07 12:14:31;;;;;;;3.35;1.63;;;11.00;99.90;;;;;;5105630;28;20042;-73
2023/01/07 12:17:14;;;;;;;2.38;1.20;;;11.00;99.90;;;;;;5100931;28;20555;-72
2023/01/07 12:19:52;;;;;;;1.30;1.20;;;11.00;99.90;;;;;;5098313;27;20089;-72
2023/01/07 12:22:20;;;;;;;1.77;1.05;;;10.90;99.90;;;;;;5092508;28;20028;-72
2023/01/07 12:25:04;;;;;;;3.00;1.20;;;10.90;99.90;;;;;;5096026;28;20594;-72
2023/01/07 12:27:53;;;;;;;1.55;1.27;;;10.90;99.90;;;;;;5068525;28;20041;-72
2023/01/07 12:30:34;;;;;;;3.88;1.15;;;11.00;99.90;;;;;;5106291;27;20038;-72
2023/01/07 12:33:15;;;;;;;2.90;1.25;;;11.00;99.90;;;;;;5094630;28;20047;-73
2023/01/07 12:35:42;;;;;;;1.42;1.13;;;11.00;99.90;;;;;;5082230;28;20019;-73
2023/01/07 12:38:25;;;;;;;2.20;1.25;;;11.10;99.90;;;;;;5103965;28;20042;-72
2023/01/07 12:41:09;;;;;;;2.20;1.40;;;11.00;99.90;;;;;;5085588;27;20020;-73
2023/01/07 12:44:04;;;;;;;1.73;1.52;;;11.00;99.90;;;;;;5068283;28;20122;-73
2023/01/07 12:46:38;;;;;;;2.78;1.60;;;10.90;99.90;;;;;;5081656;28;20048;-72
2023/01/07 12:49:27;;;;;;;2.33;1.35;;;10.90;99.90;;;;;;5098904;28;20024;-73
2023/01/07 12:52:06;;;;;;;4.43;1.73;;;10.90;99.90;;;;;;5103573;28;20038;-73
2023/01/07 12:55:10;;;;;;;2.10;1.10;;;10.80;99.90;;;;;;5100838;28;20031;-73
2023/01/07 12:57:39;;;;;;;1.63;1.42;;;10.80;99.90;;;;;;5022556;28;20029;-76
2023/01/07 13:00:33;;;;;;;2.85;1.70;;;10.80;99.90;;;;;;5023958;28;20040;-77